^^
MeteoGriva-Weather Station Historical Data
Daily Summary for July 30, 2020 Units:  Metric    English   Both
Daily Weekly Monthly Yearly Custom
  High: Low: Average:
Temperature: 35.4 °C 25.2 °C 29.8 °C
Dew Point: 24.3 °C 18.5 °C 21.2 °C
Humidity: 70.4% 49.1% 61%
Wind Speed: 8.9km/h 0km/h 1.1km/h
Wind Gust: 24.1km/h - -
Wind- - SE
Pressure: 1014.9 hPa 1010.2 hPa -
Precipitation: 0.0 mm    
Historical Graphs
 
 
Tabular Data for July 30, 2020
Time Temperature Dew Point Pressure Wind Wind Speed Wind Gust Humidity Rainfall Rate (Hourly) solar
00:04 26.3 °C 19.9 °C 1011.9 hPa Calm     68% 0.0 mm 0 W/m2
00:09 26.2 °C 20.1 °C 1011.9 hPa Calm     69.1% 0.0 mm 0 W/m2
00:14 25.8 °C 19.7 °C 1012.2 hPa Calm     69% 0.0 mm 0 W/m2
00:19 25.7 °C 19.7 °C 1012.2 hPa Calm     69.7% 0.0 mm 0 W/m2
00:24 25.7 °C 19.7 °C 1012.2 hPa Calm     69.8% 0.0 mm 0 W/m2
00:29 25.6 °C 19.8 °C 1012.5 hPa Calm     70.4% 0.0 mm 0 W/m2
00:34 25.4 °C 19.6 °C 1012.5 hPa Calm     70.2% 0.0 mm 0 W/m2
00:39 25.4 °C 19.5 °C 1012.5 hPa Calm     69.8% 0.0 mm 0 W/m2
00:44 25.5 °C 19.6 °C 1012.5 hPa Calm     70% 0.0 mm 0 W/m2
00:49 25.5 °C 19.5 °C 1012.5 hPa Calm     69.3% 0.0 mm 0 W/m2
00:54 25.7 °C 19.6 °C 1012.5 hPa Calm     69% 0.0 mm 0 W/m2
00:59 25.7 °C 19.7 °C 1012.5 hPa Calm     69.7% 0.0 mm 0 W/m2
01:04 25.7 °C 19.8 °C 1012.5 hPa Calm     70% 0.0 mm 0 W/m2
01:09 25.6 °C 19.7 °C 1012.5 hPa Calm     69.8% 0.0 mm 0 W/m2
01:14 25.5 °C 19.6 °C 1012.5 hPa Calm     69.8% 0.0 mm 0 W/m2
01:19 25.5 °C 19.7 °C 1012.5 hPa Calm     70.2% 0.0 mm 0 W/m2
01:24 25.5 °C 19.4 °C 1012.5 hPa Calm     69% 0.0 mm 0 W/m2
01:29 25.5 °C 19.4 °C 1012.5 hPa Calm     69% 0.0 mm 0 W/m2
01:34 25.6 °C 19.5 °C 1012.5 hPa Calm     69.2% 0.0 mm 0 W/m2
01:39 25.6 °C 19.5 °C 1012.5 hPa Calm     69% 0.0 mm 0 W/m2
01:44 25.6 °C 19.7 °C 1012.5 hPa Calm     69.8% 0.0 mm 0 W/m2
01:49 25.6 °C 19.7 °C 1012.5 hPa Calm     70% 0.0 mm 0 W/m2
01:54 25.5 °C 19.6 °C 1012.5 hPa Calm     70% 0.0 mm 0 W/m2
01:59 25.5 °C 19.6 °C 1012.5 hPa Calm     70% 0.0 mm 0 W/m2
02:04 25.5 °C 19.4 °C 1012.5 hPa Calm     69.1% 0.0 mm 0 W/m2
02:09 25.6 °C 19.6 °C 1012.5 hPa Calm     69.5% 0.0 mm 0 W/m2
02:14 25.7 °C 19.6 °C 1012.5 hPa Calm     69.3% 0.0 mm 0 W/m2
02:19 25.7 °C 19.6 °C 1012.5 hPa Calm     69% 0.0 mm 0 W/m2
02:24 25.7 °C 19.6 °C 1012.5 hPa Calm     69% 0.0 mm 0 W/m2
02:29 25.7 °C 19.6 °C 1012.5 hPa Calm     69% 0.0 mm 0 W/m2
02:34 25.7 °C 19.3 °C 1012.5 hPa Calm     68.1% 0.0 mm 0 W/m2
02:39 25.8 °C 19.4 °C 1012.5 hPa Calm     68% 0.0 mm 0 W/m2
02:44 25.7 °C 19.3 °C 1012.5 hPa Calm     68% 0.0 mm 0 W/m2
02:49 25.7 °C 19.4 °C 1012.5 hPa Calm     68.2% 0.0 mm 0 W/m2
02:54 25.7 °C 19.2 °C 1012.5 hPa Calm     67.6% 0.0 mm 0 W/m2
02:59 25.8 °C 19 °C 1012.2 hPa Calm     66.2% 0.0 mm 0 W/m2
03:04 25.8 °C 19.1 °C 1012.2 hPa Calm     66.4% 0.0 mm 0 W/m2
03:09 25.8 °C 19.2 °C 1012.5 hPa Calm     67.3% 0.0 mm 0 W/m2
03:14 25.7 °C 19 °C 1012.2 hPa Calm     66.6% 0.0 mm 0 W/m2
03:19 25.7 °C 19.2 °C 1012.5 hPa Calm     67.7% 0.0 mm 0 W/m2
03:24 25.6 °C 19 °C 1012.5 hPa Calm     67% 0.0 mm 0 W/m2
03:29 25.6 °C 19.1 °C 1012.5 hPa Calm     67.4% 0.0 mm 0 W/m2
03:34 25.5 °C 19.2 °C 1012.5 hPa Calm     68% 0.0 mm 0 W/m2
03:39 25.5 °C 18.9 °C 1012.5 hPa Calm     67.1% 0.0 mm 0 W/m2
03:44 25.5 °C 18.9 °C 1012.5 hPa Calm     67% 0.0 mm 0 W/m2
03:49 25.5 °C 18.9 °C 1012.5 hPa Calm     67% 0.0 mm 0 W/m2
03:54 25.4 °C 19 °C 1012.5 hPa Calm     67.7% 0.0 mm 0 W/m2
03:59 25.3 °C 18.6 °C 1012.5 hPa Calm     66.4% 0.0 mm 0 W/m2
04:04 25.3 °C 18.8 °C 1012.5 hPa Calm     67.4% 0.0 mm 0 W/m2
04:09 25.3 °C 18.9 °C 1012.5 hPa Calm     67.7% 0.0 mm 0 W/m2
04:14 25.6 °C 18.8 °C 1012.5 hPa Calm     65.8% 0.0 mm 0 W/m2
04:19 25.9 °C 19.1 °C 1012.5 hPa Calm     66% 0.0 mm 0 W/m2
04:24 25.9 °C 18.9 °C 1012.9 hPa Calm     65.3% 0.0 mm 0 W/m2
04:29 25.9 °C 19.2 °C 1012.5 hPa Calm     66.8% 0.0 mm 0 W/m2
04:34 25.7 °C 19.1 °C 1012.5 hPa Calm     67.1% 0.0 mm 0 W/m2
04:39 25.5 °C 18.9 °C 1012.5 hPa Calm     66.9% 0.0 mm 0 W/m2
04:44 25.5 °C 18.8 °C 1012.5 hPa Calm     66.7% 0.0 mm 0 W/m2
04:49 25.5 °C 19.3 °C 1012.5 hPa Calm     68.4% 0.0 mm 0 W/m2
04:54 25.5 °C 18.9 °C 1012.5 hPa Calm     67% 0.0 mm 0 W/m2
04:59 25.4 °C 19 °C 1012.5 hPa Calm     67.6% 0.0 mm 0 W/m2
05:04 25.5 °C 18.9 °C 1012.5 hPa Calm     67% 0.0 mm 0 W/m2
05:09 25.5 °C 18.9 °C 1012.9 hPa Calm     66.9% 0.0 mm 0 W/m2
05:14 25.8 °C 19 °C 1012.9 hPa Calm     66% 0.0 mm 0 W/m2
05:19 26 °C 19.5 °C 1012.9 hPa Calm     67.7% 0.0 mm 0 W/m2
05:24 25.9 °C 19.8 °C 1012.9 hPa Calm     69.1% 0.0 mm 0 W/m2
05:29 25.7 °C 19.6 °C 1012.9 hPa Calm     69.1% 0.0 mm 0 W/m2
05:34 25.6 °C 19.4 °C 1012.9 hPa Calm     68.6% 0.0 mm 0 W/m2
05:39 25.5 °C 19.3 °C 1012.9 hPa Calm     68.2% 0.0 mm 0 W/m2
05:44 25.5 °C 19.4 °C 1012.9 hPa Calm     69.1% 0.0 mm 0 W/m2
05:49 25.5 °C 19.3 °C 1013.2 hPa Calm     68.4% 0.0 mm 0 W/m2
05:54 25.3 °C 19.2 °C 1013.2 hPa Calm     68.7% 0.0 mm 0 W/m2
05:59 25.2 °C 18.9 °C 1013.2 hPa Calm     68% 0.0 mm 0 W/m2
06:04 25.2 °C 18.8 °C 1013.2 hPa Calm     67.6% 0.0 mm 0 W/m2
06:09 25.2 °C 18.9 °C 1013.2 hPa West 0.1 km/h 4 km/h 67.9% 0.0 mm 0 W/m2
06:14 25.2 °C 18.7 °C 1013.2 hPa Calm     67.3% 0.0 mm 0 W/m2
06:19 25.3 °C 18.7 °C 1013.2 hPa Calm     67% 0.0 mm 0 W/m2
06:24 25.3 °C 18.6 °C 1013.2 hPa Calm     66.3% 0.0 mm 2 W/m2
06:29 25.3 °C 18.5 °C 1013.5 hPa Calm     66% 0.0 mm 5 W/m2
06:34 25.4 °C 18.5 °C 1013.5 hPa Calm     65.7% 0.0 mm 9 W/m2
06:39 25.6 °C 18.6 °C 1013.5 hPa Calm     65.6% 0.0 mm 19 W/m2
06:44 25.6 °C 18.6 °C 1013.5 hPa Calm     65.3% 0.0 mm 36 W/m2
06:49 25.6 °C 18.7 °C 1013.5 hPa Calm     65.6% 0.0 mm 53 W/m2
06:54 25.7 °C 18.8 °C 1013.5 hPa Calm     66% 0.0 mm 76 W/m2
06:59 25.9 °C 18.9 °C 1013.5 hPa Calm     65.3% 0.0 mm 93 W/m2
07:04 25.9 °C 18.7 °C 1013.5 hPa Calm     64.4% 0.0 mm 115 W/m2
07:09 26.1 °C 18.8 °C 1013.5 hPa Calm     64.1% 0.0 mm 133 W/m2
07:14 26.5 °C 19.1 °C 1013.5 hPa Calm     63.9% 0.0 mm 149 W/m2
07:19 27.6 °C 19.6 °C 1013.5 hPa Calm     61.8% 0.0 mm 167 W/m2
07:24 27.7 °C 19.8 °C 1013.5 hPa Calm     62.1% 0.0 mm 183 W/m2
07:29 27.9 °C 19.5 °C 1013.5 hPa Calm     60.3% 0.0 mm 198 W/m2
07:34 28.4 °C 19 °C 1013.5 hPa Calm     56.8% 0.0 mm 216 W/m2
07:39 29.8 °C 20.6 °C 1013.9 hPa Calm     57.9% 0.0 mm 230 W/m2
07:44 29.7 °C 20.7 °C 1013.9 hPa Calm     58.7% 0.0 mm 241 W/m2
07:49 29.6 °C 20.5 °C 1013.9 hPa Calm     58.3% 0.0 mm 251 W/m2
07:54 29.6 °C 20.3 °C 1013.9 hPa Calm     57.6% 0.0 mm 260 W/m2
07:59 29.9 °C 20.6 °C 1013.5 hPa Calm     57.3% 0.0 mm 268 W/m2
08:04 30 °C 21.1 °C 1013.9 hPa Calm     59.3% 0.0 mm 275 W/m2
08:09 29.9 °C 21.4 °C 1013.9 hPa Calm     60.4% 0.0 mm 280 W/m2
08:14 29.8 °C 21.5 °C 1013.9 hPa Calm     61% 0.0 mm 285 W/m2
08:19 29.2 °C 20.7 °C 1013.9 hPa Calm     60.6% 0.0 mm 289 W/m2
08:24 29.2 °C 20.4 °C 1013.9 hPa Calm     59% 0.0 mm 294 W/m2
08:29 29.5 °C 20.1 °C 1013.9 hPa Calm     57.2% 0.0 mm 300 W/m2
08:34 29.8 °C 20.2 °C 1014.2 hPa Calm     56.4% 0.0 mm 305 W/m2
08:39 31.4 °C 21.7 °C 1014.2 hPa Calm     56.3% 0.0 mm 311 W/m2
08:44 31.4 °C 21.6 °C 1014.2 hPa Calm     56.1% 0.0 mm 316 W/m2
08:49 31.3 °C 22 °C 1014.2 hPa Calm     57.7% 0.0 mm 319 W/m2
08:54 31.2 °C 22.9 °C 1014.2 hPa SE 0.2 km/h 4 km/h 61.3% 0.0 mm 321 W/m2
08:59 30.5 °C 22.2 °C 1014.2 hPa Calm     61.4% 0.0 mm 328 W/m2
09:04 30.4 °C 22.5 °C 1014.6 hPa SE 0.3 km/h 4 km/h 62.6% 0.0 mm 332 W/m2
09:09 30.3 °C 22.4 °C 1014.6 hPa Calm     62.8% 0.0 mm 336 W/m2
09:14 30.2 °C 22.4 °C 1014.6 hPa SSE 0.6 km/h 7.9 km/h 63.2% 0.0 mm 341 W/m2
09:19 29.8 °C 21.7 °C 1014.6 hPa Calm     61.7% 0.0 mm 349 W/m2
09:24 29.8 °C 21.1 °C 1014.6 hPa Calm     59.6% 0.0 mm 357 W/m2
09:29 30 °C 21.1 °C 1014.6 hPa Calm     59% 0.0 mm 366 W/m2
09:34 30.2 °C 21 °C 1014.6 hPa Calm     58% 0.0 mm 371 W/m2
09:39 31.2 °C 21.6 °C 1014.6 hPa Calm     56.8% 0.0 mm 379 W/m2
09:44 31.4 °C 21.9 °C 1014.6 hPa Calm     57.1% 0.0 mm 386 W/m2
09:49 31.3 °C 22.4 °C 1014.6 hPa Calm     59.1% 0.0 mm 392 W/m2
09:54 31.3 °C 22.4 °C 1014.6 hPa Calm     59.5% 0.0 mm 397 W/m2
09:59 29.4 °C 21.2 °C 1014.6 hPa Calm     61.1% 0.0 mm 403 W/m2
10:04 29.5 °C 21.2 °C 1014.9 hPa NNW 0.3 km/h 7.9 km/h 60.9% 0.0 mm 406 W/m2
10:09 29.6 °C 21.2 °C 1014.6 hPa NE 0.1 km/h 4 km/h 60.9% 0.0 mm 413 W/m2
10:14 29.7 °C 21 °C 1014.6 hPa Calm   7.9 km/h 59.8% 0.0 mm 419 W/m2
10:19 29.4 °C 21.1 °C 1014.9 hPa NNE 2.2 km/h 7.9 km/h 60.8% 0.0 mm 423 W/m2
10:24 29.4 °C 20.6 °C 1014.6 hPa NE 0.3 km/h 7.9 km/h 59.6% 0.0 mm 436 W/m2
10:29 29.5 °C 20.5 °C 1014.6 hPa NE 1.1 km/h 7.9 km/h 58.2% 0.0 mm 442 W/m2
10:34 29.7 °C 20.5 °C 1014.6 hPa Calm   7.9 km/h 57.8% 0.0 mm 451 W/m2
10:39 30.6 °C 21.4 °C 1014.6 hPa Calm   12.2 km/h 58% 0.0 mm 458 W/m2
10:44 30.7 °C 21.3 °C 1014.6 hPa Calm   12.2 km/h 57.1% 0.0 mm 469 W/m2
10:49 30.8 °C 20.9 °C 1014.6 hPa NNE 1.8 km/h 12.2 km/h 55.6% 0.0 mm 475 W/m2
10:54 30.9 °C 21.1 °C 1014.6 hPa ENE 1.6 km/h 12.2 km/h 55.9% 0.0 mm 481 W/m2
10:59 30.8 °C 21.1 °C 1014.6 hPa NNE 1.9 km/h 12.2 km/h 56.2% 0.0 mm 484 W/m2
11:04 30.8 °C 21.1 °C 1014.6 hPa NNE 1.3 km/h 12.2 km/h 56.4% 0.0 mm 486 W/m2
11:09 30.9 °C 20.7 °C 1014.6 hPa ENE 0.3 km/h 12.2 km/h 54.7% 0.0 mm 497 W/m2
11:14 31.1 °C 21.1 °C 1014.6 hPa ENE 2.3 km/h 16.3 km/h 55.6% 0.0 mm 499 W/m2
11:19 31.8 °C 21.7 °C 1014.6 hPa East 1.3 km/h 7.9 km/h 55.1% 0.0 mm 503 W/m2
11:24 31.9 °C 21.9 °C 1014.6 hPa NNE 0.7 km/h 12.2 km/h 55.7% 0.0 mm 503 W/m2
11:29 31.9 °C 21.5 °C 1014.6 hPa NE 0.1 km/h 12.2 km/h 54.4% 0.0 mm 509 W/m2
11:34 32 °C 21.2 °C 1014.6 hPa SE 1.1 km/h 7.9 km/h 53% 0.0 mm 515 W/m2
11:39 32.4 °C 21.6 °C 1014.6 hPa SE 0.3 km/h 7.9 km/h 53.1% 0.0 mm 520 W/m2
11:44 32.6 °C 21.9 °C 1014.6 hPa NE 0.2 km/h 7.9 km/h 53.3% 0.0 mm 521 W/m2
11:49 32.6 °C 22 °C 1014.6 hPa ENE 1.6 km/h 12.2 km/h 53.7% 0.0 mm 525 W/m2
11:54 32.5 °C 22.1 °C 1014.6 hPa NE 1.4 km/h 12.2 km/h 54.5% 0.0 mm 525 W/m2
11:59 32.7 °C 22.1 °C 1014.2 hPa North 1.3 km/h 7.9 km/h 53.9% 0.0 mm 528 W/m2
12:04 32.7 °C 22 °C 1014.6 hPa ESE 1.7 km/h 12.2 km/h 53.3% 0.0 mm 530 W/m2
12:09 32.7 °C 21.6 °C 1014.2 hPa East 0.9 km/h 7.9 km/h 52% 0.0 mm 535 W/m2
12:14 32.8 °C 21.8 °C 1014.2 hPa ESE 0.9 km/h 7.9 km/h 52.4% 0.0 mm 537 W/m2
12:19 33.1 °C 21.8 °C 1014.2 hPa Calm   12.2 km/h 51.8% 0.0 mm 540 W/m2
12:24 33.2 °C 21.8 °C 1014.2 hPa South 0.6 km/h 12.2 km/h 51.2% 0.0 mm 540 W/m2
12:29 33.3 °C 21.8 °C 1014.2 hPa SSE 1.2 km/h 12.2 km/h 51.1% 0.0 mm 542 W/m2
12:34 33.4 °C 21.9 °C 1014.2 hPa SE 1.8 km/h 7.9 km/h 51% 0.0 mm 544 W/m2
12:39 34.2 °C 22.3 °C 1014.2 hPa SE 1.1 km/h 12.2 km/h 50.1% 0.0 mm 547 W/m2
12:44 34.5 °C 22.7 °C 1014.2 hPa SSE 3.3 km/h 12.2 km/h 50.6% 0.0 mm 548 W/m2
12:49 34.3 °C 22.7 °C 1014.2 hPa SE 0.3 km/h 7.9 km/h 50.8% 0.0 mm 549 W/m2
12:54 34.2 °C 22.6 °C 1014.2 hPa SE 0.4 km/h 7.9 km/h 51% 0.0 mm 551 W/m2
12:59 33.9 °C 22.2 °C 1013.9 hPa SSE 2.5 km/h 12.2 km/h 50.6% 0.0 mm 553 W/m2
13:04 33.7 °C 22.5 °C 1013.9 hPa East 1.5 km/h 12.2 km/h 51.9% 0.0 mm 554 W/m2
13:09 33.5 °C 22.6 °C 1013.9 hPa NNE 1.6 km/h 12.2 km/h 52.9% 0.0 mm 551 W/m2
13:14 33.2 °C 22.4 °C 1013.9 hPa NE 1.9 km/h 12.2 km/h 53.2% 0.0 mm 547 W/m2
13:19 33.5 °C 22.1 °C 1013.9 hPa SSW 1.5 km/h 20.1 km/h 51.4% 0.0 mm 551 W/m2
13:24 33.8 °C 21.9 °C 1013.5 hPa SSE 2.8 km/h 20.1 km/h 50.1% 0.0 mm 555 W/m2
13:29 33.9 °C 22.1 °C 1013.5 hPa SE 3.7 km/h 16.3 km/h 50.2% 0.0 mm 554 W/m2
13:34 33.9 °C 22 °C 1013.5 hPa South 0.9 km/h 12.2 km/h 50.1% 0.0 mm 553 W/m2
13:39 33.8 °C 22 °C 1013.5 hPa SSE 3.4 km/h 12.2 km/h 50.1% 0.0 mm 558 W/m2
13:44 33.8 °C 22 °C 1013.2 hPa ENE 1.7 km/h 7.9 km/h 50.4% 0.0 mm 561 W/m2
13:49 33.8 °C 22.4 °C 1013.2 hPa North 1.5 km/h 7.9 km/h 51.3% 0.0 mm 561 W/m2
13:54 33.8 °C 22 °C 1012.9 hPa South 1.3 km/h 7.9 km/h 50.1% 0.0 mm 561 W/m2
13:59 34.2 °C 22 °C 1013.2 hPa SE 1.8 km/h 12.2 km/h 49.1% 0.0 mm 561 W/m2
14:04 34.5 °C 22.5 °C 1013.2 hPa SSE 5.7 km/h 16.3 km/h 49.7% 0.0 mm 561 W/m2
14:09 34.5 °C 22.6 °C 1012.9 hPa SSE 1.3 km/h 12.2 km/h 49.9% 0.0 mm 554 W/m2
14:14 34.5 °C 22.3 °C 1012.9 hPa SSE 2.2 km/h 12.2 km/h 49.1% 0.0 mm 556 W/m2
14:19 34.5 °C 22.4 °C 1012.9 hPa South 0.8 km/h 12.2 km/h 49.7% 0.0 mm 571 W/m2
14:24 34.4 °C 22.4 °C 1012.9 hPa South 0.6 km/h 7.9 km/h 49.8% 0.0 mm 566 W/m2
14:29 34.5 °C 22.7 °C 1012.9 hPa South 3.9 km/h 12.2 km/h 50.5% 0.0 mm 554 W/m2
14:34 34.5 °C 22.9 °C 1012.9 hPa SSE 3.3 km/h 12.2 km/h 51.1% 0.0 mm 558 W/m2
14:39 34.4 °C 22.8 °C 1012.9 hPa SSE 3.9 km/h 16.3 km/h 51% 0.0 mm 561 W/m2
14:44 34.3 °C 22.6 °C 1012.5 hPa South 1.6 km/h 16.3 km/h 50.7% 0.0 mm 559 W/m2
14:49 34.5 °C 22.4 °C 1012.5 hPa SE 2.4 km/h 7.9 km/h 49.6% 0.0 mm 562 W/m2
14:54 34.5 °C 22.5 °C 1012.5 hPa SE 1 km/h 7.9 km/h 49.8% 0.0 mm 562 W/m2
14:59 34.2 °C 22.6 °C 1012.5 hPa NNE 0.7 km/h 7.9 km/h 51% 0.0 mm 564 W/m2
15:04 33.9 °C 22.2 °C 1012.5 hPa ESE 0.3 km/h 4 km/h 50.8% 0.0 mm 567 W/m2
15:09 34 °C 22.3 °C 1012.2 hPa South 1.7 km/h 7.9 km/h 50.4% 0.0 mm 562 W/m2
15:14 34.2 °C 22.9 °C 1012.2 hPa South 8.4 km/h 20.1 km/h 52.1% 0.0 mm 564 W/m2
15:19 34.5 °C 23.4 °C 1012.2 hPa SSW 6.5 km/h 20.1 km/h 52.6% 0.0 mm 559 W/m2
15:24 34.8 °C 23.6 °C 1012.2 hPa South 6.7 km/h 16.3 km/h 52.2% 0.0 mm 553 W/m2
15:29 34.8 °C 23.6 °C 1011.9 hPa South 3.5 km/h 12.2 km/h 52.2% 0.0 mm 551 W/m2
15:34 34.8 °C 23.8 °C 1011.9 hPa SSE 6.4 km/h 20.1 km/h 53% 0.0 mm 551 W/m2
15:39 34.7 °C 23.7 °C 1011.9 hPa SSE 6.2 km/h 20.1 km/h 53% 0.0 mm 557 W/m2
15:44 34.7 °C 23.7 °C 1011.9 hPa SE 4.8 km/h 16.3 km/h 52.9% 0.0 mm 552 W/m2
15:49 34.7 °C 23.6 °C 1011.9 hPa South 4.8 km/h 12.2 km/h 52.8% 0.0 mm 547 W/m2
15:54 34.7 °C 23.7 °C 1011.9 hPa South 5.7 km/h 16.3 km/h 52.9% 0.0 mm 552 W/m2
15:59 34.7 °C 23.8 °C 1011.9 hPa SSE 5.6 km/h 16.3 km/h 53.4% 0.0 mm 542 W/m2
16:04 34.7 °C 23.8 °C 1011.9 hPa South 6.5 km/h 24.1 km/h 53.6% 0.0 mm 539 W/m2
16:09 34.6 °C 23.6 °C 1011.5 hPa SSE 5.1 km/h 12.2 km/h 52.9% 0.0 mm 524 W/m2
16:14 34.6 °C 23.3 °C 1011.5 hPa Calm   12.2 km/h 52.1% 0.0 mm 522 W/m2
16:19 34.9 °C 23.4 °C 1011.5 hPa South 1 km/h 12.2 km/h 51.2% 0.0 mm 533 W/m2
16:24 35.4 °C 24.1 °C 1011.2 hPa South 5.3 km/h 16.3 km/h 52.3% 0.0 mm 525 W/m2
16:29 35.3 °C 24.3 °C 1011.2 hPa SSE 4.5 km/h 16.3 km/h 53% 0.0 mm 518 W/m2
16:34 35.2 °C 24.3 °C 1011.2 hPa SSE 8.9 km/h 20.1 km/h 53.3% 0.0 mm 506 W/m2
16:39 34.9 °C 24 °C 1011.5 hPa South 6.3 km/h 20.1 km/h 53.2% 0.0 mm 506 W/m2
16:44 34.7 °C 23.8 °C 1011.2 hPa SSE 8.1 km/h 20.1 km/h 53.1% 0.0 mm 497 W/m2
16:49 34.7 °C 23.8 °C 1010.8 hPa South 3.9 km/h 20.1 km/h 53.4% 0.0 mm 495 W/m2
16:54 34.7 °C 23.7 °C 1011.2 hPa South 5.2 km/h 12.2 km/h 52.9% 0.0 mm 491 W/m2
16:59 34.8 °C 23.8 °C 1010.8 hPa South 3.4 km/h 12.2 km/h 53.1% 0.0 mm 491 W/m2
17:04 34.8 °C 23.9 °C 1010.8 hPa South 4.1 km/h 16.3 km/h 53.5% 0.0 mm 485 W/m2
17:09 34.7 °C 23.9 °C 1010.8 hPa South 6.8 km/h 16.3 km/h 53.8% 0.0 mm 475 W/m2
17:14 34.7 °C 24 °C 1010.8 hPa South 4.6 km/h 16.3 km/h 54% 0.0 mm 471 W/m2
17:19 34.5 °C 23.8 °C 1010.8 hPa South 6.9 km/h 20.1 km/h 54.1% 0.0 mm 466 W/m2
17:24 34 °C 23.6 °C 1010.8 hPa South 7.2 km/h 20.1 km/h 54.8% 0.0 mm 457 W/m2
17:29 34.1 °C 23.7 °C 1010.8 hPa SSW 5.5 km/h 16.3 km/h 54.8% 0.0 mm 450 W/m2
17:34 34.1 °C 23.7 °C 1010.8 hPa South 2.8 km/h 12.2 km/h 54.9% 0.0 mm 442 W/m2
17:39 34.1 °C 24 °C 1010.8 hPa South 6.8 km/h 16.3 km/h 55.8% 0.0 mm 435 W/m2
17:44 33.7 °C 23.7 °C 1010.5 hPa SSW 3.8 km/h 16.3 km/h 56% 0.0 mm 431 W/m2
17:49 33.7 °C 23.7 °C 1010.8 hPa South 5.2 km/h 12.2 km/h 56% 0.0 mm 426 W/m2
17:54 33.8 °C 23.6 °C 1010.8 hPa South 5.4 km/h 12.2 km/h 55.4% 0.0 mm 418 W/m2
17:59 33.8 °C 23.8 °C 1010.8 hPa South 5.3 km/h 16.3 km/h 56% 0.0 mm 413 W/m2
18:04 33.3 °C 23.4 °C 1010.8 hPa South 7.5 km/h 16.3 km/h 56.4% 0.0 mm 388 W/m2
18:09 33.3 °C 23.6 °C 1010.5 hPa SSE 6.4 km/h 16.3 km/h 57% 0.0 mm 382 W/m2
18:14 33.2 °C 23.5 °C 1010.5 hPa South 4.3 km/h 16.3 km/h 57% 0.0 mm 373 W/m2
18:19 33.2 °C 23.4 °C 1010.5 hPa South 2.9 km/h 12.2 km/h 56.8% 0.0 mm 363 W/m2
18:24 33 °C 23.3 °C 1010.2 hPa South 3.6 km/h 12.2 km/h 56.8% 0.0 mm 355 W/m2
18:29 33 °C 23.4 °C 1010.5 hPa South 5.9 km/h 16.3 km/h 57.4% 0.0 mm 98 W/m2
18:34 32.8 °C 23.4 °C 1010.2 hPa South 4.7 km/h 16.3 km/h 58% 0.0 mm 94 W/m2
18:39 32.6 °C 23.5 °C 1010.2 hPa South 3.1 km/h 16.3 km/h 58.8% 0.0 mm 91 W/m2
18:44 31.8 °C 22.8 °C 1010.2 hPa South 2.6 km/h 12.2 km/h 59% 0.0 mm 89 W/m2
18:49 31.7 °C 22.8 °C 1010.2 hPa South 4 km/h 16.3 km/h 59.2% 0.0 mm 87 W/m2
18:54 31.7 °C 23 °C 1010.2 hPa South 3.7 km/h 12.2 km/h 60% 0.0 mm 86 W/m2
18:59 31.7 °C 23 °C 1010.2 hPa South 2.2 km/h 12.2 km/h 60% 0.0 mm 84 W/m2
19:04 31.4 °C 22.7 °C 1010.2 hPa SSE 3.3 km/h 16.3 km/h 60% 0.0 mm 82 W/m2
19:09 31.4 °C 22.7 °C 1010.2 hPa South 2.3 km/h 12.2 km/h 60% 0.0 mm 80 W/m2
19:14 31.4 °C 23 °C 1010.2 hPa Calm   7.9 km/h 61.1% 0.0 mm 78 W/m2
19:19 31.3 °C 23.3 °C 1010.2 hPa Calm     62.6% 0.0 mm 75 W/m2
19:24 31 °C 23.4 °C 1010.2 hPa Calm     63.8% 0.0 mm 72 W/m2
19:29 30.9 °C 23.3 °C 1010.2 hPa Calm     64.2% 0.0 mm 69 W/m2
19:34 30.9 °C 23.2 °C 1010.2 hPa Calm     63.6% 0.0 mm 66 W/m2
19:39 30.8 °C 23.1 °C 1010.2 hPa Calm     63.4% 0.0 mm 62 W/m2
19:44 30.6 °C 23 °C 1010.2 hPa Calm     64% 0.0 mm 58 W/m2
19:49 30.6 °C 23 °C 1010.2 hPa Calm     64% 0.0 mm 54 W/m2
19:54 30.6 °C 23.4 °C 1010.2 hPa Calm     65.4% 0.0 mm 50 W/m2
19:59 30.5 °C 23.3 °C 1010.2 hPa Calm     65.7% 0.0 mm 46 W/m2
20:04 30 °C 22.8 °C 1010.2 hPa Calm     65.3% 0.0 mm 42 W/m2
20:09 30 °C 22.5 °C 1010.2 hPa Calm     64.4% 0.0 mm 38 W/m2
20:14 30 °C 22.6 °C 1010.2 hPa Calm     64.7% 0.0 mm 33 W/m2
20:19 30 °C 22.4 °C 1010.2 hPa Calm     64% 0.0 mm 29 W/m2
20:24 30 °C 22.3 °C 1010.5 hPa Calm     63.3% 0.0 mm 25 W/m2
20:29 30 °C 22.2 °C 1010.5 hPa Calm     63.1% 0.0 mm 20 W/m2
20:34 30 °C 21.9 °C 1010.2 hPa Calm     62% 0.0 mm 16 W/m2
20:39 30 °C 21.9 °C 1010.2 hPa Calm     61.8% 0.0 mm 10 W/m2
20:44 30.2 °C 21.7 °C 1010.5 hPa Calm     60.2% 0.0 mm 6 W/m2
20:49 30.2 °C 22.4 °C 1010.5 hPa Calm     62.9% 0.0 mm 3 W/m2
20:54 30.2 °C 22.5 °C 1010.5 hPa Calm     64% 0.0 mm 0 W/m2
20:59 30 °C 22.2 °C 1010.5 hPa Calm     63% 0.0 mm 0 W/m2
21:04 29.8 °C 21.5 °C 1010.2 hPa Calm     61% 0.0 mm 0 W/m2
21:09 29.8 °C 21.8 °C 1010.5 hPa Calm     62.4% 0.0 mm 0 W/m2
21:14 29.7 °C 21.6 °C 1010.5 hPa Calm     61.9% 0.0 mm 0 W/m2
21:19 29.7 °C 21.6 °C 1010.5 hPa Calm     61.8% 0.0 mm 0 W/m2
21:24 29.3 °C 21.3 °C 1010.8 hPa Calm     62% 0.0 mm 0 W/m2
21:29 29.2 °C 21.1 °C 1010.8 hPa Calm     61.6% 0.0 mm 0 W/m2
21:34 29.3 °C 21.2 °C 1010.8 hPa Calm     61.6% 0.0 mm 0 W/m2
21:39 29.3 °C 21.2 °C 1010.8 hPa Calm     61.6% 0.0 mm 0 W/m2
21:44 29.6 °C 21.3 °C 1010.8 hPa Calm     61.1% 0.0 mm 0 W/m2
21:49 29.7 °C 21.3 °C 1011.2 hPa Calm     60.8% 0.0 mm 0 W/m2
21:54 29.7 °C 21.4 °C 1011.2 hPa Calm     61.2% 0.0 mm 0 W/m2
21:59 29.6 °C 21.9 °C 1011.2 hPa Calm     63.2% 0.0 mm 0 W/m2
22:04 29.1 °C 21.4 °C 1011.2 hPa Calm     63.2% 0.0 mm 0 W/m2
22:09 28.9 °C 21.1 °C 1011.2 hPa Calm     63% 0.0 mm 0 W/m2
22:14 28.9 °C 21.1 °C 1011.2 hPa Calm     62.8% 0.0 mm 0 W/m2
22:19 28.9 °C 21.1 °C 1011.2 hPa Calm     62.8% 0.0 mm 0 W/m2
22:24 28.8 °C 21.1 °C 1011.2 hPa Calm     63% 0.0 mm 0 W/m2
22:29 28.8 °C 21.1 °C 1011.5 hPa Calm     63.1% 0.0 mm 0 W/m2
22:34 28.8 °C 21 °C 1011.5 hPa Calm     62.7% 0.0 mm 0 W/m2
22:39 28.8 °C 21.2 °C 1011.5 hPa Calm     63.7% 0.0 mm 0 W/m2
22:44 28.6 °C 20.9 °C 1011.5 hPa Calm     63% 0.0 mm 0 W/m2
22:49 28.6 °C 20.9 °C 1011.5 hPa Calm     63% 0.0 mm 0 W/m2
22:54 28.6 °C 20.9 °C 1011.5 hPa Calm     63.2% 0.0 mm 0 W/m2
22:59 28.5 °C 21 °C 1011.5 hPa SSW 0.2 km/h 4 km/h 63.9% 0.0 mm 0 W/m2
23:04 28.3 °C 20.9 °C 1011.5 hPa Calm     64.3% 0.0 mm 0 W/m2
23:09 28.1 °C 21.1 °C 1011.9 hPa Calm     66% 0.0 mm 0 W/m2
23:14 28 °C 21.1 °C 1011.5 hPa Calm     66.1% 0.0 mm 0 W/m2
23:19 27.9 °C 21 °C 1011.9 hPa Calm     66% 0.0 mm 0 W/m2
23:24 27.5 °C 20.7 °C 1011.9 hPa Calm     66.1% 0.0 mm 0 W/m2
23:29 27.3 °C 20.4 °C 1011.9 hPa Calm     66% 0.0 mm 0 W/m2
23:34 27.3 °C 20.4 °C 1011.9 hPa Calm     66% 0.0 mm 0 W/m2
23:39 27.3 °C 20.3 °C 1011.9 hPa Calm     65.7% 0.0 mm 0 W/m2
23:44 27.1 °C 20.5 °C 1011.9 hPa Calm     67.1% 0.0 mm 0 W/m2
23:49 27 °C 20.6 °C 1011.9 hPa Calm     68.1% 0.0 mm 0 W/m2
23:54 27 °C 20.6 °C 1012.2 hPa Calm     67.9% 0.0 mm 0 W/m2
23:59 27 °C 20.3 °C 1012.2 hPa Calm     67.1% 0.0 mm 0 W/m2
Juneau County Weather
Compliments of Weather Underground - 2 mb